createdAt,value
2022-11-27T00:05:01.590Z,988.16
2022-11-27T00:11:27.515Z,988.11
2022-11-27T00:17:50.645Z,988.08
2022-11-27T00:24:18.406Z,987.96
2022-11-27T00:30:40.553Z,987.85
2022-11-27T00:37:16.605Z,987.85
2022-11-27T00:43:46.168Z,988.01
2022-11-27T00:50:09.602Z,988.01
2022-11-27T00:56:42.080Z,988.02
2022-11-27T01:03:07.904Z,988
2022-11-27T01:09:33.116Z,987.94
2022-11-27T01:16:05.943Z,987.79
2022-11-27T01:22:35.664Z,987.86
2022-11-27T01:29:02.024Z,987.81
2022-11-27T01:35:28.048Z,987.78
2022-11-27T01:41:57.623Z,987.73
2022-11-27T01:48:44.876Z,987.63
2022-11-27T01:55:33.224Z,987.62
2022-11-27T02:02:27.657Z,987.59
2022-11-27T02:09:07.287Z,987.39
2022-11-27T02:16:18.864Z,987.34
2022-11-27T02:23:13.253Z,987.3
2022-11-27T02:30:13.664Z,987.24
2022-11-27T02:37:07.662Z,987.15
2022-11-27T02:44:17.094Z,987.03
2022-11-27T02:51:02.103Z,987.03
2022-11-27T02:57:48.504Z,986.94
2022-11-27T03:04:34.770Z,986.86
2022-11-27T03:11:46.622Z,986.78
2022-11-27T03:18:35.090Z,986.65
2022-11-27T03:25:19.147Z,986.63
2022-11-27T03:31:55.599Z,986.64
2022-11-27T03:38:24.970Z,986.65
2022-11-27T03:45:26.982Z,986.57
2022-11-27T03:52:36.010Z,986.56
2022-11-27T03:59:48.882Z,986.4
2022-11-27T04:06:28.009Z,986.27
2022-11-27T04:12:51.594Z,986.29
2022-11-27T04:19:18.896Z,986.42
2022-11-27T04:25:45.193Z,986.38
2022-11-27T04:32:10.096Z,986.33
2022-11-27T04:38:36.224Z,986.43
2022-11-27T04:45:00.087Z,986.47
2022-11-27T04:51:24.436Z,986.39
2022-11-27T04:57:59.167Z,986.31
2022-11-27T05:04:24.121Z,986.34
2022-11-27T05:11:02.966Z,986.24
2022-11-27T05:17:35.901Z,986.14
2022-11-27T05:24:11.887Z,986.1
2022-11-27T05:30:34.197Z,985.98
2022-11-27T05:36:56.968Z,985.9
2022-11-27T05:43:23.925Z,986.12
2022-11-27T05:49:51.937Z,985.88
2022-11-27T05:56:14.097Z,985.92
2022-11-27T06:02:46.531Z,985.69
2022-11-27T06:09:19.185Z,985.57
2022-11-27T06:15:51.647Z,985.46
2022-11-27T06:22:20.952Z,985.43
2022-11-27T06:28:49.982Z,985.43
2022-11-27T06:35:21.109Z,985.49
2022-11-27T06:41:45.544Z,985.32
2022-11-27T06:48:09.357Z,985.47
2022-11-27T06:54:37.953Z,985.61
2022-11-27T07:01:06.677Z,985.46
2022-11-27T07:07:44.490Z,985.37
2022-11-27T07:14:18.770Z,985.21
2022-11-27T07:20:47.140Z,985.13
2022-11-27T07:27:21.811Z,985.18
2022-11-27T07:33:51.716Z,984.99
2022-11-27T07:40:21.884Z,984.95
2022-11-27T07:46:51.853Z,985.03
2022-11-27T07:53:18.560Z,984.96
2022-11-27T07:59:51.742Z,984.99
2022-11-27T08:06:27.467Z,984.92
2022-11-27T08:12:48.827Z,984.94
2022-11-27T08:19:15.961Z,984.91
2022-11-27T08:25:35.919Z,984.84
2022-11-27T08:32:05.148Z,984.58
2022-11-27T08:38:31.491Z,984.45
2022-11-27T08:44:55.878Z,984.25
2022-11-27T08:51:20.301Z,984.23
2022-11-27T08:57:43.762Z,984.38
2022-11-27T09:04:28.941Z,984.35
2022-11-27T09:11:00.224Z,984.34
2022-11-27T09:17:24.884Z,984.48
2022-11-27T09:23:54.213Z,984.68
2022-11-27T09:30:29.161Z,984.7
2022-11-27T09:37:02.947Z,984.52
2022-11-27T09:43:38.272Z,984.32
2022-11-27T09:50:42.322Z,984.24
2022-11-27T09:57:36.701Z,984.15
2022-11-27T10:04:51.228Z,983.91
2022-11-27T10:11:37.855Z,983.83
2022-11-27T10:18:41.271Z,983.73
2022-11-27T10:25:33.974Z,983.6
2022-11-27T10:33:01.491Z,983.67
2022-11-27T10:39:59.019Z,983.51
2022-11-27T10:46:57.092Z,983.44
2022-11-27T10:53:37.143Z,983.42
2022-11-27T11:00:32.831Z,983.36
2022-11-27T11:07:23.570Z,983.32
2022-11-27T11:14:16.895Z,983.15
2022-11-27T11:21:03.839Z,983.07
2022-11-27T11:28:00.959Z,982.94
2022-11-27T11:35:02.040Z,982.82
2022-11-27T11:41:53.138Z,982.62
2022-11-27T11:48:38.249Z,982.48
2022-11-27T11:55:42.228Z,982.22
2022-11-27T12:02:53.166Z,982.27
2022-11-27T12:09:50.262Z,982.24
2022-11-27T12:16:48.567Z,982.18
2022-11-27T12:24:02.258Z,982.01
2022-11-27T12:31:07.862Z,982.01
2022-11-27T12:38:10.020Z,981.88
2022-11-27T12:45:07.922Z,981.79
2022-11-27T12:52:24.063Z,981.67
2022-11-27T12:59:32.325Z,981.46
2022-11-27T13:06:28.033Z,981.27
2022-11-27T13:13:26.925Z,981.01
2022-11-27T13:20:25.322Z,980.7
2022-11-27T13:27:11.143Z,980.57
2022-11-27T13:34:12.071Z,980.45
2022-11-27T13:41:02.280Z,980.38
2022-11-27T13:47:49.424Z,980.35
2022-11-27T13:54:51.505Z,980.2
2022-11-27T14:01:24.765Z,980.05
2022-11-27T14:08:19.908Z,979.96
2022-11-27T14:15:05.955Z,979.91
2022-11-27T14:22:10.038Z,979.92
2022-11-27T14:29:14.827Z,980.06
2022-11-27T14:36:04.398Z,980.12
2022-11-27T14:42:52.932Z,980
2022-11-27T14:49:38.033Z,979.97
2022-11-27T14:56:10.017Z,980.21
2022-11-27T15:02:56.981Z,980.01
2022-11-27T15:09:53.606Z,980.05
2022-11-27T15:16:56.731Z,980.04
2022-11-27T15:23:47.733Z,979.84
2022-11-27T15:30:47.649Z,979.8
2022-11-27T15:37:38.022Z,979.64
2022-11-27T15:44:23.057Z,979.52
2022-11-27T15:51:13.224Z,979.41
2022-11-27T15:57:38.383Z,979.3
2022-11-27T16:04:00.651Z,979.29
2022-11-27T16:10:24.695Z,979.13
2022-11-27T16:16:48.737Z,979.08
2022-11-27T16:23:15.054Z,979.03
2022-11-27T16:29:45.648Z,978.99
2022-11-27T16:36:09.992Z,978.92
2022-11-27T16:42:35.769Z,978.91
2022-11-27T16:49:03.886Z,978.84
2022-11-27T16:55:44.064Z,978.66
2022-11-27T17:02:11.494Z,978.45
2022-11-27T17:08:44.239Z,978.34
2022-11-27T17:15:06.339Z,978.25
2022-11-27T17:21:31.092Z,977.97
2022-11-27T17:28:11.174Z,977.79
2022-11-27T17:34:44.417Z,977.87
2022-11-27T17:41:11.187Z,977.89
2022-11-27T17:47:42.998Z,977.81
2022-11-27T17:54:15.799Z,977.71
2022-11-27T18:00:47.431Z,977.54
2022-11-27T18:07:24.557Z,977.42
2022-11-27T18:13:56.139Z,977.33
2022-11-27T18:20:28.977Z,977.31
2022-11-27T18:27:09.755Z,977.39
2022-11-27T18:33:49.432Z,977.34
2022-11-27T18:40:20.236Z,977.25
2022-11-27T18:46:50.983Z,977.1
2022-11-27T18:53:23.137Z,976.97
2022-11-27T19:00:09.102Z,977.15
2022-11-27T19:06:40.152Z,977.18
2022-11-27T19:13:16.302Z,977.01
2022-11-27T19:19:56.330Z,977.01
2022-11-27T19:26:24.997Z,976.84
2022-11-27T19:33:03.556Z,976.75
2022-11-27T19:39:32.251Z,976.75
2022-11-27T19:46:00.659Z,976.82
2022-11-27T19:52:31.102Z,976.72
2022-11-27T19:58:57.625Z,976.73
2022-11-27T20:05:39.303Z,976.75
2022-11-27T20:12:10.549Z,976.55
2022-11-27T20:18:34.217Z,976.42
2022-11-27T20:25:21.736Z,976.27
2022-11-27T20:31:43.168Z,976.21
2022-11-27T20:38:14.783Z,976.18
2022-11-27T20:44:39.042Z,976.1
2022-11-27T20:51:06.151Z,976.16
2022-11-27T20:57:36.278Z,976.12
2022-11-27T21:03:56.236Z,976.18
2022-11-27T21:10:27.160Z,976.18
2022-11-27T21:16:52.670Z,975.96
2022-11-27T21:23:17.153Z,975.98
2022-11-27T21:29:43.868Z,975.87
2022-11-27T21:36:10.370Z,975.88
2022-11-27T21:42:45.454Z,975.71
2022-11-27T21:49:19.541Z,975.8
2022-11-27T21:55:49.412Z,975.63
2022-11-27T22:02:14.717Z,975.58
2022-11-27T22:08:40.178Z,975.45
2022-11-27T22:15:26.730Z,975.48
2022-11-27T22:21:56.471Z,975.4
2022-11-27T22:28:19.122Z,975.34
2022-11-27T22:34:47.645Z,975.24
2022-11-27T22:41:20.432Z,975.25
2022-11-27T22:47:45.147Z,975.15
2022-11-27T22:54:17.530Z,975.05
2022-11-27T23:00:38.152Z,974.93
2022-11-27T23:07:07.164Z,975
2022-11-27T23:13:39.363Z,975.01
2022-11-27T23:20:00.359Z,975
2022-11-27T23:26:25.409Z,975.06
2022-11-27T23:32:57.661Z,975.02
2022-11-27T23:39:22.616Z,974.95
2022-11-27T23:45:51.250Z,975.05
2022-11-27T23:52:22.855Z,974.96
2022-11-27T23:58:54.342Z,975.08
